createdAt,value
2023-01-25T00:00:44.209Z,71.69
2023-01-25T00:05:47.380Z,72.08
2023-01-25T00:10:52.681Z,72.03
2023-01-25T00:16:02.831Z,72.24
2023-01-25T00:21:13.993Z,72.76
2023-01-25T00:26:17.625Z,73.37
2023-01-25T00:31:33.083Z,73.13
2023-01-25T00:36:42.653Z,73.98
2023-01-25T00:41:45.931Z,74.31
2023-01-25T00:46:50.964Z,74.26
2023-01-25T00:51:55.871Z,74.48
2023-01-25T00:56:59.043Z,74.37
2023-01-25T01:02:04.121Z,74.75
2023-01-25T01:07:07.386Z,74.74
2023-01-25T01:12:10.603Z,74.08
2023-01-25T01:17:15.170Z,74.46
2023-01-25T01:22:18.324Z,74.39
2023-01-25T01:27:21.455Z,75.39
2023-01-25T01:32:26.280Z,75.45
2023-01-25T01:37:29.530Z,75.90
2023-01-25T01:42:32.634Z,75.55
2023-01-25T01:47:46.029Z,75.61
2023-01-25T01:52:50.102Z,75.90
2023-01-25T01:57:58.089Z,75.44
2023-01-25T02:03:03.261Z,76.33
2023-01-25T02:08:07.985Z,76.08
2023-01-25T02:13:11.773Z,75.73
2023-01-25T02:18:17.308Z,76.65
2023-01-25T02:23:27.796Z,75.88
2023-01-25T02:28:36.467Z,76.37
2023-01-25T02:33:39.621Z,76.05
2023-01-25T02:38:46.732Z,76.30
2023-01-25T02:43:51.705Z,76.29
2023-01-25T02:48:55.648Z,75.78
2023-01-25T02:53:59.055Z,75.86
2023-01-25T02:59:05.823Z,75.45
2023-01-25T03:04:09.861Z,75.23
2023-01-25T03:09:13.716Z,74.57
2023-01-25T03:14:18.444Z,73.50
2023-01-25T03:19:21.607Z,74.01
2023-01-25T03:24:24.789Z,73.75
2023-01-25T03:29:29.363Z,73.60
2023-01-25T03:34:32.514Z,72.95
2023-01-25T03:39:35.695Z,72.37
2023-01-25T03:44:40.253Z,72.74
2023-01-25T03:49:43.542Z,72.45
2023-01-25T03:54:48.050Z,72.04
2023-01-25T03:59:52.568Z,72.52
2023-01-25T04:04:55.714Z,72.60
2023-01-25T04:09:58.829Z,72.26
2023-01-25T04:15:03.416Z,72.60
2023-01-25T04:20:07.782Z,72.94
2023-01-25T04:25:11.761Z,73.37
2023-01-25T04:30:17.036Z,73.39
2023-01-25T04:35:20.987Z,72.61
2023-01-25T04:40:24.131Z,72.00
2023-01-25T04:45:28.709Z,71.24
2023-01-25T04:50:32.411Z,72.17
2023-01-25T04:55:35.624Z,71.93
2023-01-25T05:00:40.221Z,71.27
2023-01-25T05:05:47.516Z,69.85
2023-01-25T05:10:50.694Z,70.59
2023-01-25T05:15:57.414Z,71.17
2023-01-25T05:21:00.554Z,71.01
2023-01-25T05:26:32.480Z,70.03
2023-01-25T05:31:37.138Z,71.33
2023-01-25T05:36:40.336Z,70.87
2023-01-25T05:41:43.495Z,71.25
2023-01-25T05:46:48.303Z,69.81
2023-01-25T05:51:51.507Z,69.84
2023-01-25T05:56:54.628Z,70.46
2023-01-25T06:01:59.204Z,70.46
2023-01-25T06:07:02.348Z,69.40
2023-01-25T06:12:06.894Z,70.08
2023-01-25T06:17:11.450Z,70.21
2023-01-25T06:22:14.567Z,70.33
2023-01-25T06:27:17.730Z,69.19
2023-01-25T06:32:22.325Z,69.37
2023-01-25T06:37:25.476Z,68.54
2023-01-25T06:42:28.634Z,68.88
2023-01-25T06:47:33.171Z,68.66
2023-01-25T06:52:37.052Z,68.20
2023-01-25T06:57:40.201Z,68.00
2023-01-25T07:02:44.871Z,67.98
2023-01-25T07:07:48.542Z,67.93
2023-01-25T07:12:51.665Z,68.21
2023-01-25T07:18:01.160Z,67.25
2023-01-25T07:23:09.259Z,67.22
2023-01-25T07:28:12.392Z,67.97
2023-01-25T07:33:16.939Z,67.64
2023-01-25T07:38:20.083Z,66.81
2023-01-25T07:43:23.255Z,67.26
2023-01-25T07:48:27.897Z,67.31
2023-01-25T07:53:31.043Z,66.79
2023-01-25T07:58:34.255Z,66.94
2023-01-25T08:03:39.313Z,67.08
2023-01-25T08:08:44.799Z,67.33
2023-01-25T08:13:49.719Z,67.19
2023-01-25T08:18:56.147Z,67.65
2023-01-25T08:23:59.929Z,67.84
2023-01-25T08:29:03.361Z,67.03
2023-01-25T08:34:08.819Z,66.66
2023-01-25T08:39:12.952Z,66.76
2023-01-25T08:44:16.084Z,66.32
2023-01-25T08:49:20.799Z,65.60
2023-01-25T08:54:24.550Z,65.62
2023-01-25T08:59:27.953Z,65.03
2023-01-25T09:04:32.530Z,65.02
2023-01-25T09:09:35.664Z,64.78
2023-01-25T09:14:40.414Z,64.29
2023-01-25T09:19:45.944Z,63.43
2023-01-25T09:24:52.370Z,63.13
2023-01-25T09:30:02.132Z,62.45
2023-01-25T09:35:08.363Z,61.76
2023-01-25T09:40:20.368Z,62.54
2023-01-25T09:45:32.096Z,60.93
2023-01-25T09:50:39.558Z,61.80
2023-01-25T09:55:43.279Z,61.55
2023-01-25T10:00:51.567Z,61.09
2023-01-25T10:06:01.158Z,61.13
2023-01-25T10:11:15.053Z,60.62
2023-01-25T10:16:28.476Z,60.36
2023-01-25T10:21:39.001Z,60.03
2023-01-25T10:26:46.588Z,60.24
2023-01-25T10:31:53.384Z,59.72
2023-01-25T10:36:59.487Z,58.87
2023-01-25T10:42:08.044Z,58.19
2023-01-25T10:47:22.879Z,57.73
2023-01-25T10:52:29.332Z,57.90
2023-01-25T10:57:32.795Z,56.81
2023-01-25T11:02:45.303Z,57.39
2023-01-25T11:07:50.295Z,57.46
2023-01-25T11:13:19.732Z,57.73
2023-01-25T11:18:25.352Z,56.69
2023-01-25T11:23:29.927Z,56.37
2023-01-25T11:28:33.088Z,56.60
2023-01-25T11:33:36.256Z,56.87
2023-01-25T11:38:49.537Z,56.27
2023-01-25T11:44:20.496Z,55.68
2023-01-25T11:49:35.951Z,55.32
2023-01-25T11:54:51.008Z,55.20
2023-01-25T12:00:11.242Z,54.89
2023-01-25T12:05:29.642Z,54.37
2023-01-25T12:10:46.043Z,54.67
2023-01-25T12:16:13.098Z,54.84
2023-01-25T12:21:31.843Z,54.68
2023-01-25T12:26:49.623Z,54.13
2023-01-25T12:31:58.396Z,54.07
2023-01-25T12:37:07.280Z,54.02
2023-01-25T12:42:20.035Z,53.71
2023-01-25T12:47:33.455Z,53.17
2023-01-25T12:52:40.319Z,52.89
2023-01-25T12:57:54.424Z,52.62
2023-01-25T13:03:29.425Z,52.03
2023-01-25T13:08:43.662Z,52.36
2023-01-25T13:13:48.389Z,51.86
2023-01-25T13:18:51.700Z,52.46
2023-01-25T13:24:24.262Z,51.99
2023-01-25T13:29:47.340Z,51.90
2023-01-25T13:35:00.701Z,51.87
2023-01-25T13:40:06.417Z,50.99
2023-01-25T13:45:20.032Z,50.26
2023-01-25T13:50:27.046Z,47.10
2023-01-25T13:55:38.821Z,45.00
2023-01-25T14:00:51.550Z,43.14
2023-01-25T14:05:57.709Z,42.04
2023-01-25T14:11:01.107Z,41.92
2023-01-25T14:16:11.678Z,38.84
2023-01-25T14:21:18.777Z,38.68
2023-01-25T14:26:25.184Z,37.03
2023-01-25T14:31:34.940Z,36.83
2023-01-25T14:36:38.179Z,37.44
2023-01-25T14:41:51.702Z,37.20
2023-01-25T14:47:30.160Z,35.71
2023-01-25T14:52:33.335Z,36.33
2023-01-25T14:57:39.311Z,35.78
2023-01-25T15:02:48.385Z,36.27
2023-01-25T15:07:54.022Z,36.44
2023-01-25T15:13:11.608Z,36.19
2023-01-25T15:18:45.198Z,36.13
2023-01-25T15:23:50.355Z,36.58
2023-01-25T15:28:55.061Z,36.94
2023-01-25T15:34:00.195Z,36.88
2023-01-25T15:39:03.453Z,37.36
2023-01-25T15:44:07.247Z,37.51
2023-01-25T15:49:18.266Z,37.77
2023-01-25T15:54:21.472Z,36.99
2023-01-25T15:59:25.226Z,37.72
2023-01-25T16:04:29.785Z,38.03
2023-01-25T16:09:33.436Z,38.47
2023-01-25T16:14:36.653Z,38.60
2023-01-25T16:19:41.174Z,38.67
2023-01-25T16:24:44.783Z,38.55
2023-01-25T16:29:48.252Z,39.02
2023-01-25T16:34:52.866Z,39.32
2023-01-25T16:39:56.034Z,39.99
2023-01-25T16:44:59.275Z,41.29
2023-01-25T16:50:03.860Z,41.37
2023-01-25T16:55:07.932Z,41.96
2023-01-25T17:00:14.426Z,42.40
2023-01-25T17:05:19.216Z,42.67
2023-01-25T17:10:22.424Z,44.01
2023-01-25T17:15:25.739Z,45.14
2023-01-25T17:20:30.304Z,46.68
2023-01-25T17:25:35.591Z,47.60
2023-01-25T17:30:41.584Z,47.73
2023-01-25T17:35:46.340Z,48.16
2023-01-25T17:40:49.754Z,50.17
2023-01-25T17:45:52.939Z,50.85
2023-01-25T17:51:04.302Z,52.72
2023-01-25T17:56:08.631Z,53.63
2023-01-25T18:01:14.409Z,54.10
2023-01-25T18:06:21.416Z,54.32
2023-01-25T18:11:27.395Z,55.69
2023-01-25T18:16:33.233Z,56.39
2023-01-25T18:21:38.865Z,57.13
2023-01-25T18:26:42.826Z,59.25
2023-01-25T18:31:46.473Z,59.57
2023-01-25T18:36:51.070Z,57.63
2023-01-25T18:41:54.318Z,58.74
2023-01-25T18:46:57.702Z,61.08
2023-01-25T18:52:11.316Z,61.95
2023-01-25T18:57:15.941Z,63.19
2023-01-25T19:02:20.126Z,62.40
2023-01-25T19:07:24.777Z,61.54
2023-01-25T19:12:27.984Z,61.42
2023-01-25T19:17:32.915Z,61.00
2023-01-25T19:22:37.546Z,62.66
2023-01-25T19:27:40.788Z,62.18
2023-01-25T19:32:43.987Z,63.66
2023-01-25T19:37:48.715Z,65.71
2023-01-25T19:42:51.976Z,65.48
2023-01-25T19:47:55.466Z,64.46
2023-01-25T19:53:01.543Z,66.11
2023-01-25T19:58:04.806Z,65.17
2023-01-25T20:03:16.299Z,65.31
2023-01-25T20:08:21.388Z,64.84
2023-01-25T20:13:24.638Z,65.96
2023-01-25T20:18:28.261Z,66.17
2023-01-25T20:23:35.275Z,67.97
2023-01-25T20:28:39.107Z,67.43
2023-01-25T20:33:42.330Z,68.40
2023-01-25T20:38:47.317Z,67.02
2023-01-25T20:43:52.215Z,67.94
2023-01-25T20:48:55.897Z,67.25
2023-01-25T20:54:00.541Z,66.91
2023-01-25T20:59:03.869Z,68.23
2023-01-25T21:04:09.853Z,68.83
2023-01-25T21:09:14.494Z,68.32
2023-01-25T21:14:19.784Z,68.94
2023-01-25T21:19:23.050Z,71.64
2023-01-25T21:24:27.731Z,70.50
2023-01-25T21:29:30.998Z,69.82
2023-01-25T21:34:34.280Z,71.64
2023-01-25T21:39:38.892Z,72.03
2023-01-25T21:44:59.587Z,71.48
2023-01-25T21:50:20.266Z,70.94
2023-01-25T21:55:24.975Z,71.56
2023-01-25T22:00:28.301Z,72.77
2023-01-25T22:05:31.521Z,72.53
2023-01-25T22:10:36.163Z,73.69
2023-01-25T22:15:39.433Z,73.70
2023-01-25T22:20:42.690Z,72.37
2023-01-25T22:25:48.998Z,72.09
2023-01-25T22:30:52.275Z,73.08
2023-01-25T22:35:55.567Z,74.07
2023-01-25T22:41:04.968Z,73.13
2023-01-25T22:46:09.867Z,72.40
2023-01-25T22:51:15.293Z,73.39
2023-01-25T22:56:20.777Z,73.59
2023-01-25T23:01:25.810Z,73.81
2023-01-25T23:06:31.271Z,74.81
2023-01-25T23:11:37.802Z,75.63
2023-01-25T23:16:41.106Z,75.69
2023-01-25T23:21:44.375Z,76.81
2023-01-25T23:26:48.960Z,77.24
2023-01-25T23:31:52.210Z,76.64
2023-01-25T23:36:55.578Z,76.59
2023-01-25T23:42:00.207Z,76.45
2023-01-25T23:47:03.447Z,76.76
2023-01-25T23:52:06.746Z,76.70
2023-01-25T23:57:11.404Z,77.79
